Terminal Aerodrome Forecast
Issued by NWS

Home | Current Version | Previous Version | Text Only | Print | Product List | Glossary On
Versions: 1 2 3 4 5 6 7 8 9 10 11 12 13 14 15 16 17 18 19 20 21 22 23 24 25
000
FTUS42 KCAE 310200 AAA
TAFOGB
TAF AMD
KOGB 310241Z 3103/3124 14009KT P6SM SCT120
     FM310800 VRB03KT 4SM BR SCT003
     FM311100 VRB03KT 1SM BR BKN003
     FM311300 VRB03KT 4SM BR BKN008
     FM311500 20005KT P6SM SCT012 BKN020
     FM311600 19005KT P6SM SCT030 BKN040=

USA.gov is the U.S. government's official web portal to all federal, state and local government web resources and services.